sensor_id;sensor_type;location;lat;lon;timestamp;temperature;humidity
59660;DHT22;45534;52.690;6.268;2022-07-23T00:01:01;14.80;99.90
59660;DHT22;45534;52.690;6.268;2022-07-23T00:03:27;14.70;99.90
59660;DHT22;45534;52.690;6.268;2022-07-23T00:05:53;14.70;99.90
59660;DHT22;45534;52.690;6.268;2022-07-23T00:08:18;14.60;99.90
59660;DHT22;45534;52.690;6.268;2022-07-23T00:10:44;14.60;99.90
59660;DHT22;45534;52.690;6.268;2022-07-23T00:13:10;14.60;99.90
59660;DHT22;45534;52.690;6.268;2022-07-23T00:15:36;14.50;99.90
59660;DHT22;45534;52.690;6.268;2022-07-23T00:18:02;14.40;99.90
59660;DHT22;45534;52.690;6.268;2022-07-23T00:20:27;14.40;99.90
59660;DHT22;45534;52.690;6.268;2022-07-23T00:22:54;14.30;99.90
59660;DHT22;45534;52.690;6.268;2022-07-23T00:25:21;14.20;99.90
59660;DHT22;45534;52.690;6.268;2022-07-23T00:27:47;14.20;99.90
59660;DHT22;45534;52.690;6.268;2022-07-23T00:30:13;14.10;99.90
59660;DHT22;45534;52.690;6.268;2022-07-23T00:32:47;14.10;99.90
59660;DHT22;45534;52.690;6.268;2022-07-23T00:35:13;14.10;99.90
59660;DHT22;45534;52.690;6.268;2022-07-23T00:37:39;14.10;99.90
59660;DHT22;45534;52.690;6.268;2022-07-23T00:40:05;14.00;99.90
59660;DHT22;45534;52.690;6.268;2022-07-23T00:42:31;14.00;99.90
59660;DHT22;45534;52.690;6.268;2022-07-23T00:44:57;13.90;99.90
59660;DHT22;45534;52.690;6.268;2022-07-23T00:47:23;13.90;99.90
59660;DHT22;45534;52.690;6.268;2022-07-23T00:49:49;13.90;99.90
59660;DHT22;45534;52.690;6.268;2022-07-23T00:52:14;13.90;99.90
59660;DHT22;45534;52.690;6.268;2022-07-23T00:54:41;13.90;99.90
59660;DHT22;45534;52.690;6.268;2022-07-23T00:57:07;13.90;99.90
59660;DHT22;45534;52.690;6.268;2022-07-23T00:59:33;13.90;99.90
59660;DHT22;45534;52.690;6.268;2022-07-23T01:01:58;13.90;99.90
59660;DHT22;45534;52.690;6.268;2022-07-23T01:04:24;13.80;99.90
59660;DHT22;45534;52.690;6.268;2022-07-23T01:06:50;13.80;99.90
59660;DHT22;45534;52.690;6.268;2022-07-23T01:09:15;13.70;99.90
59660;DHT22;45534;52.690;6.268;2022-07-23T01:11:41;13.70;99.90
59660;DHT22;45534;52.690;6.268;2022-07-23T01:14:13;13.70;99.90
59660;DHT22;45534;52.690;6.268;2022-07-23T01:16:41;13.70;99.90
59660;DHT22;45534;52.690;6.268;2022-07-23T01:19:07;13.70;99.90
59660;DHT22;45534;52.690;6.268;2022-07-23T01:21:36;13.70;99.90
59660;DHT22;45534;52.690;6.268;2022-07-23T01:24:02;13.60;99.90
59660;DHT22;45534;52.690;6.268;2022-07-23T01:26:28;13.60;99.90
59660;DHT22;45534;52.690;6.268;2022-07-23T01:28:53;13.50;99.90
59660;DHT22;45534;52.690;6.268;2022-07-23T01:31:19;13.50;99.90
59660;DHT22;45534;52.690;6.268;2022-07-23T01:33:45;13.40;99.90
59660;DHT22;45534;52.690;6.268;2022-07-23T01:36:11;13.40;99.90
59660;DHT22;45534;52.690;6.268;2022-07-23T01:38:36;13.30;99.90
59660;DHT22;45534;52.690;6.268;2022-07-23T01:41:02;13.30;99.90
59660;DHT22;45534;52.690;6.268;2022-07-23T01:43:28;13.30;99.90
59660;DHT22;45534;52.690;6.268;2022-07-23T01:45:53;13.30;99.90
59660;DHT22;45534;52.690;6.268;2022-07-23T01:48:19;13.30;99.90
59660;DHT22;45534;52.690;6.268;2022-07-23T01:50:47;13.30;99.90
59660;DHT22;45534;52.690;6.268;2022-07-23T01:53:13;13.30;99.90
59660;DHT22;45534;52.690;6.268;2022-07-23T01:55:39;13.30;99.90
59660;DHT22;45534;52.690;6.268;2022-07-23T01:58:05;13.30;99.90
59660;DHT22;45534;52.690;6.268;2022-07-23T02:00:31;13.30;99.90
59660;DHT22;45534;52.690;6.268;2022-07-23T02:02:57;13.30;99.90
59660;DHT22;45534;52.690;6.268;2022-07-23T02:05:26;13.20;99.90
59660;DHT22;45534;52.690;6.268;2022-07-23T02:07:54;13.20;99.90
59660;DHT22;45534;52.690;6.268;2022-07-23T02:10:20;13.20;99.90
59660;DHT22;45534;52.690;6.268;2022-07-23T02:12:46;13.20;99.90
59660;DHT22;45534;52.690;6.268;2022-07-23T02:15:12;13.20;99.90
59660;DHT22;45534;52.690;6.268;2022-07-23T02:17:37;13.20;99.90
59660;DHT22;45534;52.690;6.268;2022-07-23T02:20:05;13.20;99.90
59660;DHT22;45534;52.690;6.268;2022-07-23T02:22:30;13.20;99.90
59660;DHT22;45534;52.690;6.268;2022-07-23T02:24:56;13.20;99.90
59660;DHT22;45534;52.690;6.268;2022-07-23T02:27:22;13.10;99.90
59660;DHT22;45534;52.690;6.268;2022-07-23T02:29:49;13.10;99.90
59660;DHT22;45534;52.690;6.268;2022-07-23T02:32:14;13.10;99.90
59660;DHT22;45534;52.690;6.268;2022-07-23T02:34:40;13.10;99.90
59660;DHT22;45534;52.690;6.268;2022-07-23T02:37:06;13.10;99.90
59660;DHT22;45534;52.690;6.268;2022-07-23T02:39:31;13.10;99.90
59660;DHT22;45534;52.690;6.268;2022-07-23T02:41:57;13.10;99.90
59660;DHT22;45534;52.690;6.268;2022-07-23T02:44:23;13.10;99.90
59660;DHT22;45534;52.690;6.268;2022-07-23T02:46:48;13.00;99.90
59660;DHT22;45534;52.690;6.268;2022-07-23T02:49:14;13.00;99.90
59660;DHT22;45534;52.690;6.268;2022-07-23T02:51:40;12.90;99.90
59660;DHT22;45534;52.690;6.268;2022-07-23T02:54:05;12.90;99.90
59660;DHT22;45534;52.690;6.268;2022-07-23T02:56:31;12.90;99.90
59660;DHT22;45534;52.690;6.268;2022-07-23T02:58:56;12.90;99.90
59660;DHT22;45534;52.690;6.268;2022-07-23T03:01:22;12.80;99.90
59660;DHT22;45534;52.690;6.268;2022-07-23T03:03:48;12.80;99.90
59660;DHT22;45534;52.690;6.268;2022-07-23T03:06:13;12.80;99.90
59660;DHT22;45534;52.690;6.268;2022-07-23T03:08:39;12.70;99.90
59660;DHT22;45534;52.690;6.268;2022-07-23T03:11:05;12.70;99.90
59660;DHT22;45534;52.690;6.268;2022-07-23T03:13:36;12.70;99.90
59660;DHT22;45534;52.690;6.268;2022-07-23T03:16:02;12.80;99.90
59660;DHT22;45534;52.690;6.268;2022-07-23T03:18:28;12.70;99.90
59660;DHT22;45534;52.690;6.268;2022-07-23T03:20:54;12.70;99.90
59660;DHT22;45534;52.690;6.268;2022-07-23T03:23:20;12.70;99.90
59660;DHT22;45534;52.690;6.268;2022-07-23T03:25:46;12.60;99.90
59660;DHT22;45534;52.690;6.268;2022-07-23T03:28:15;12.60;99.90
59660;DHT22;45534;52.690;6.268;2022-07-23T03:30:46;12.50;99.90
59660;DHT22;45534;52.690;6.268;2022-07-23T03:33:20;12.50;99.90
59660;DHT22;45534;52.690;6.268;2022-07-23T03:35:47;12.50;99.90
59660;DHT22;45534;52.690;6.268;2022-07-23T03:38:14;12.40;99.90
59660;DHT22;45534;52.690;6.268;2022-07-23T03:40:40;12.40;99.90
59660;DHT22;45534;52.690;6.268;2022-07-23T03:43:06;12.40;99.90
59660;DHT22;45534;52.690;6.268;2022-07-23T03:45:32;12.30;99.90
59660;DHT22;45534;52.690;6.268;2022-07-23T03:47:57;12.30;99.90
59660;DHT22;45534;52.690;6.268;2022-07-23T03:50:24;12.20;99.90
59660;DHT22;45534;52.690;6.268;2022-07-23T03:52:51;12.20;99.90
59660;DHT22;45534;52.690;6.268;2022-07-23T03:55:16;12.20;99.90
59660;DHT22;45534;52.690;6.268;2022-07-23T03:57:42;12.20;99.90
59660;DHT22;45534;52.690;6.268;2022-07-23T04:00:09;12.20;99.90
59660;DHT22;45534;52.690;6.268;2022-07-23T04:02:37;12.20;99.90
59660;DHT22;45534;52.690;6.268;2022-07-23T04:05:03;12.10;99.90
59660;DHT22;45534;52.690;6.268;2022-07-23T04:07:29;12.10;99.90
59660;DHT22;45534;52.690;6.268;2022-07-23T04:09:55;12.10;99.90
59660;DHT22;45534;52.690;6.268;2022-07-23T04:12:20;12.10;99.90
59660;DHT22;45534;52.690;6.268;2022-07-23T04:14:46;12.10;99.90
59660;DHT22;45534;52.690;6.268;2022-07-23T04:17:12;12.10;99.90
59660;DHT22;45534;52.690;6.268;2022-07-23T04:19:38;12.10;99.90
59660;DHT22;45534;52.690;6.268;2022-07-23T04:22:07;12.10;99.90
59660;DHT22;45534;52.690;6.268;2022-07-23T04:24:33;12.10;99.90
59660;DHT22;45534;52.690;6.268;2022-07-23T04:26:59;12.10;99.90
59660;DHT22;45534;52.690;6.268;2022-07-23T04:29:24;12.10;99.90
59660;DHT22;45534;52.690;6.268;2022-07-23T04:31:50;12.20;99.90
59660;DHT22;45534;52.690;6.268;2022-07-23T04:34:16;12.20;99.90
59660;DHT22;45534;52.690;6.268;2022-07-23T04:36:42;12.30;99.90
59660;DHT22;45534;52.690;6.268;2022-07-23T04:39:07;12.30;99.90
59660;DHT22;45534;52.690;6.268;2022-07-23T04:41:33;12.30;99.90
59660;DHT22;45534;52.690;6.268;2022-07-23T04:44:00;12.40;99.90
59660;DHT22;45534;52.690;6.268;2022-07-23T04:46:26;12.40;99.90
59660;DHT22;45534;52.690;6.268;2022-07-23T04:48:51;12.40;99.90
59660;DHT22;45534;52.690;6.268;2022-07-23T04:51:17;12.50;99.90
59660;DHT22;45534;52.690;6.268;2022-07-23T04:53:43;12.50;99.90
59660;DHT22;45534;52.690;6.268;2022-07-23T04:56:08;12.50;99.90
59660;DHT22;45534;52.690;6.268;2022-07-23T04:58:34;12.60;99.90
59660;DHT22;45534;52.690;6.268;2022-07-23T05:01:00;12.60;99.90
59660;DHT22;45534;52.690;6.268;2022-07-23T05:03:26;12.70;99.90
59660;DHT22;45534;52.690;6.268;2022-07-23T05:05:51;12.80;99.90
59660;DHT22;45534;52.690;6.268;2022-07-23T05:08:17;12.80;99.90
59660;DHT22;45534;52.690;6.268;2022-07-23T05:10:43;12.80;99.90
59660;DHT22;45534;52.690;6.268;2022-07-23T05:13:08;12.90;99.90
59660;DHT22;45534;52.690;6.268;2022-07-23T05:15:34;12.90;99.90
59660;DHT22;45534;52.690;6.268;2022-07-23T05:18:00;13.00;99.90
59660;DHT22;45534;52.690;6.268;2022-07-23T05:20:25;13.00;99.90
59660;DHT22;45534;52.690;6.268;2022-07-23T05:22:51;13.10;99.90
59660;DHT22;45534;52.690;6.268;2022-07-23T05:25:17;13.10;99.90
59660;DHT22;45534;52.690;6.268;2022-07-23T05:27:43;13.20;99.90
59660;DHT22;45534;52.690;6.268;2022-07-23T05:30:09;13.30;99.90
59660;DHT22;45534;52.690;6.268;2022-07-23T05:32:35;13.30;99.90
59660;DHT22;45534;52.690;6.268;2022-07-23T05:35:03;13.40;99.90
59660;DHT22;45534;52.690;6.268;2022-07-23T05:37:29;13.50;99.90
59660;DHT22;45534;52.690;6.268;2022-07-23T05:39:54;13.60;99.90
59660;DHT22;45534;52.690;6.268;2022-07-23T05:42:20;13.60;99.90
59660;DHT22;45534;52.690;6.268;2022-07-23T05:44:46;13.70;99.90
59660;DHT22;45534;52.690;6.268;2022-07-23T05:47:11;13.80;99.90
59660;DHT22;45534;52.690;6.268;2022-07-23T05:49:38;13.90;99.90
59660;DHT22;45534;52.690;6.268;2022-07-23T05:52:07;14.00;99.90
59660;DHT22;45534;52.690;6.268;2022-07-23T05:54:36;14.10;99.90
59660;DHT22;45534;52.690;6.268;2022-07-23T05:57:03;14.20;99.90
59660;DHT22;45534;52.690;6.268;2022-07-23T05:59:29;14.20;99.90
59660;DHT22;45534;52.690;6.268;2022-07-23T06:01:55;14.30;99.90
59660;DHT22;45534;52.690;6.268;2022-07-23T06:04:20;14.40;99.90
59660;DHT22;45534;52.690;6.268;2022-07-23T06:06:46;14.40;99.90
59660;DHT22;45534;52.690;6.268;2022-07-23T06:09:12;14.50;99.90
59660;DHT22;45534;52.690;6.268;2022-07-23T06:11:39;14.60;99.90
59660;DHT22;45534;52.690;6.268;2022-07-23T06:14:05;14.60;99.90
59660;DHT22;45534;52.690;6.268;2022-07-23T06:16:31;14.70;99.90
59660;DHT22;45534;52.690;6.268;2022-07-23T06:18:57;14.80;99.90
59660;DHT22;45534;52.690;6.268;2022-07-23T06:21:22;14.90;99.90
59660;DHT22;45534;52.690;6.268;2022-07-23T06:23:48;14.90;99.90
59660;DHT22;45534;52.690;6.268;2022-07-23T06:26:14;15.00;99.90
59660;DHT22;45534;52.690;6.268;2022-07-23T06:28:40;15.00;99.90
59660;DHT22;45534;52.690;6.268;2022-07-23T06:31:05;15.10;99.90
59660;DHT22;45534;52.690;6.268;2022-07-23T06:33:31;15.20;99.90
59660;DHT22;45534;52.690;6.268;2022-07-23T06:35:57;15.20;99.90
59660;DHT22;45534;52.690;6.268;2022-07-23T06:38:22;15.30;99.90
59660;DHT22;45534;52.690;6.268;2022-07-23T06:40:48;15.40;99.90
59660;DHT22;45534;52.690;6.268;2022-07-23T06:43:14;15.40;99.90
59660;DHT22;45534;52.690;6.268;2022-07-23T06:45:39;15.50;99.90
59660;DHT22;45534;52.690;6.268;2022-07-23T06:48:05;15.60;99.90
59660;DHT22;45534;52.690;6.268;2022-07-23T06:50:31;15.70;99.90
59660;DHT22;45534;52.690;6.268;2022-07-23T06:52:56;15.70;99.90
59660;DHT22;45534;52.690;6.268;2022-07-23T06:55:22;15.80;99.90
59660;DHT22;45534;52.690;6.268;2022-07-23T06:57:48;15.90;99.90
59660;DHT22;45534;52.690;6.268;2022-07-23T07:00:14;16.00;99.90
59660;DHT22;45534;52.690;6.268;2022-07-23T07:02:39;16.10;99.90
59660;DHT22;45534;52.690;6.268;2022-07-23T07:05:05;16.10;99.90
59660;DHT22;45534;52.690;6.268;2022-07-23T07:07:31;16.20;99.90
59660;DHT22;45534;52.690;6.268;2022-07-23T07:09:56;16.30;99.90
59660;DHT22;45534;52.690;6.268;2022-07-23T07:12:22;16.40;99.90
59660;DHT22;45534;52.690;6.268;2022-07-23T07:14:48;16.60;99.90
59660;DHT22;45534;52.690;6.268;2022-07-23T07:17:13;16.70;99.90
59660;DHT22;45534;52.690;6.268;2022-07-23T07:19:40;16.70;99.90
59660;DHT22;45534;52.690;6.268;2022-07-23T07:22:06;16.80;99.90
59660;DHT22;45534;52.690;6.268;2022-07-23T07:24:32;16.80;99.90
59660;DHT22;45534;52.690;6.268;2022-07-23T07:26:58;17.00;99.90
59660;DHT22;45534;52.690;6.268;2022-07-23T07:29:23;17.10;99.90
59660;DHT22;45534;52.690;6.268;2022-07-23T07:31:49;17.10;99.90
59660;DHT22;45534;52.690;6.268;2022-07-23T07:34:15;17.10;99.90
59660;DHT22;45534;52.690;6.268;2022-07-23T07:36:40;17.10;99.90
59660;DHT22;45534;52.690;6.268;2022-07-23T07:39:06;17.10;99.90
59660;DHT22;45534;52.690;6.268;2022-07-23T07:41:32;17.20;99.90
59660;DHT22;45534;52.690;6.268;2022-07-23T07:43:58;17.40;99.90
59660;DHT22;45534;52.690;6.268;2022-07-23T07:46:23;17.50;99.90
59660;DHT22;45534;52.690;6.268;2022-07-23T07:48:50;17.60;99.90
59660;DHT22;45534;52.690;6.268;2022-07-23T07:51:16;17.70;99.90
59660;DHT22;45534;52.690;6.268;2022-07-23T07:53:41;17.70;99.90
59660;DHT22;45534;52.690;6.268;2022-07-23T07:56:07;17.70;99.90
59660;DHT22;45534;52.690;6.268;2022-07-23T07:58:33;17.80;99.90
59660;DHT22;45534;52.690;6.268;2022-07-23T08:00:58;18.00;99.90
59660;DHT22;45534;52.690;6.268;2022-07-23T08:03:26;18.30;99.90
59660;DHT22;45534;52.690;6.268;2022-07-23T08:05:52;18.50;99.90
59660;DHT22;45534;52.690;6.268;2022-07-23T08:08:18;18.50;99.90
59660;DHT22;45534;52.690;6.268;2022-07-23T08:10:44;18.50;99.90
59660;DHT22;45534;52.690;6.268;2022-07-23T08:13:13;18.50;99.90
59660;DHT22;45534;52.690;6.268;2022-07-23T08:15:40;18.40;99.90
59660;DHT22;45534;52.690;6.268;2022-07-23T08:18:06;18.40;99.90
59660;DHT22;45534;52.690;6.268;2022-07-23T08:20:31;18.30;99.90
59660;DHT22;45534;52.690;6.268;2022-07-23T08:23:04;18.10;99.90
59660;DHT22;45534;52.690;6.268;2022-07-23T08:25:32;18.00;99.90
59660;DHT22;45534;52.690;6.268;2022-07-23T08:27:59;18.00;99.90
59660;DHT22;45534;52.690;6.268;2022-07-23T08:30:26;18.10;99.90
59660;DHT22;45534;52.690;6.268;2022-07-23T08:32:57;18.40;99.90
59660;DHT22;45534;52.690;6.268;2022-07-23T08:35:36;18.50;99.90
59660;DHT22;45534;52.690;6.268;2022-07-23T08:38:05;18.60;99.90
59660;DHT22;45534;52.690;6.268;2022-07-23T08:40:33;18.60;99.90
59660;DHT22;45534;52.690;6.268;2022-07-23T08:43:00;18.60;99.90
59660;DHT22;45534;52.690;6.268;2022-07-23T08:45:28;18.50;99.90
59660;DHT22;45534;52.690;6.268;2022-07-23T08:47:56;18.50;99.90
59660;DHT22;45534;52.690;6.268;2022-07-23T08:50:23;18.50;99.90
59660;DHT22;45534;52.690;6.268;2022-07-23T08:52:50;18.60;99.90
59660;DHT22;45534;52.690;6.268;2022-07-23T08:55:17;18.70;99.90
59660;DHT22;45534;52.690;6.268;2022-07-23T08:57:44;18.70;99.90
59660;DHT22;45534;52.690;6.268;2022-07-23T09:00:10;18.60;99.90
59660;DHT22;45534;52.690;6.268;2022-07-23T09:02:40;18.50;99.90
59660;DHT22;45534;52.690;6.268;2022-07-23T09:05:08;18.40;99.90
59660;DHT22;45534;52.690;6.268;2022-07-23T09:07:34;18.40;99.90
59660;DHT22;45534;52.690;6.268;2022-07-23T09:10:08;18.70;99.90
59660;DHT22;45534;52.690;6.268;2022-07-23T09:12:34;19.00;99.90
59660;DHT22;45534;52.690;6.268;2022-07-23T09:15:07;19.20;99.90
59660;DHT22;45534;52.690;6.268;2022-07-23T09:17:41;19.30;99.90
59660;DHT22;45534;52.690;6.268;2022-07-23T09:20:16;19.20;99.90
59660;DHT22;45534;52.690;6.268;2022-07-23T09:22:46;19.00;99.90
59660;DHT22;45534;52.690;6.268;2022-07-23T09:25:17;19.00;99.90
59660;DHT22;45534;52.690;6.268;2022-07-23T09:27:59;18.90;99.90
59660;DHT22;45534;52.690;6.268;2022-07-23T09:30:30;18.90;99.90
59660;DHT22;45534;52.690;6.268;2022-07-23T09:33:11;19.10;99.90
59660;DHT22;45534;52.690;6.268;2022-07-23T09:35:53;19.40;99.90
59660;DHT22;45534;52.690;6.268;2022-07-23T09:38:21;19.70;99.90
59660;DHT22;45534;52.690;6.268;2022-07-23T09:41:04;20.00;99.90
59660;DHT22;45534;52.690;6.268;2022-07-23T09:43:31;20.30;99.90
59660;DHT22;45534;52.690;6.268;2022-07-23T09:46:20;20.60;99.90
59660;DHT22;45534;52.690;6.268;2022-07-23T09:48:47;20.60;99.90
59660;DHT22;45534;52.690;6.268;2022-07-23T09:51:13;20.50;99.90
59660;DHT22;45534;52.690;6.268;2022-07-23T09:54:41;20.50;99.90
59660;DHT22;45534;52.690;6.268;2022-07-23T09:57:10;20.60;99.70
59660;DHT22;45534;52.690;6.268;2022-07-23T09:59:42;20.60;99.90
59660;DHT22;45534;52.690;6.268;2022-07-23T10:02:10;20.60;99.90
59660;DHT22;45534;52.690;6.268;2022-07-23T10:04:38;20.80;99.90
59660;DHT22;45534;52.690;6.268;2022-07-23T10:07:06;21.00;99.90
59660;DHT22;45534;52.690;6.268;2022-07-23T10:09:39;21.20;99.30
59660;DHT22;45534;52.690;6.268;2022-07-23T10:12:09;21.30;98.60
59660;DHT22;45534;52.690;6.268;2022-07-23T10:14:39;21.40;99.30
59660;DHT22;45534;52.690;6.268;2022-07-23T10:17:06;21.60;99.90
59660;DHT22;45534;52.690;6.268;2022-07-23T10:19:32;21.80;97.80
59660;DHT22;45534;52.690;6.268;2022-07-23T10:22:07;21.80;97.80
59660;DHT22;45534;52.690;6.268;2022-07-23T10:30:16;21.80;97.10
59660;DHT22;45534;52.690;6.268;2022-07-23T10:33:12;21.60;96.80
59660;DHT22;45534;52.690;6.268;2022-07-23T10:38:14;21.60;97.80
59660;DHT22;45534;52.690;6.268;2022-07-23T10:41:02;21.80;98.10
59660;DHT22;45534;52.690;6.268;2022-07-23T10:43:29;22.10;95.70
59660;DHT22;45534;52.690;6.268;2022-07-23T10:45:56;22.10;96.60
59660;DHT22;45534;52.690;6.268;2022-07-23T10:48:38;22.30;97.80
59660;DHT22;45534;52.690;6.268;2022-07-23T10:51:12;22.50;97.20
59660;DHT22;45534;52.690;6.268;2022-07-23T10:56:15;22.30;96.20
59660;DHT22;45534;52.690;6.268;2022-07-23T10:58:49;22.10;96.50
59660;DHT22;45534;52.690;6.268;2022-07-23T11:01:35;22.00;96.50
59660;DHT22;45534;52.690;6.268;2022-07-23T11:04:02;22.20;98.20
59660;DHT22;45534;52.690;6.268;2022-07-23T11:15:09;22.20;95.40
59660;DHT22;45534;52.690;6.268;2022-07-23T11:17:37;22.10;95.50
59660;DHT22;45534;52.690;6.268;2022-07-23T11:22:55;21.70;97.60
59660;DHT22;45534;52.690;6.268;2022-07-23T11:27:49;22.30;98.40
59660;DHT22;45534;52.690;6.268;2022-07-23T11:33:15;22.70;93.90
59660;DHT22;45534;52.690;6.268;2022-07-23T11:35:59;22.40;96.40
59660;DHT22;45534;52.690;6.268;2022-07-23T11:38:27;22.50;97.00
59660;DHT22;45534;52.690;6.268;2022-07-23T11:40:55;22.90;96.50
59660;DHT22;45534;52.690;6.268;2022-07-23T11:43:23;23.10;95.00
59660;DHT22;45534;52.690;6.268;2022-07-23T11:45:52;23.30;96.80
59660;DHT22;45534;52.690;6.268;2022-07-23T11:48:23;23.60;96.00
59660;DHT22;45534;52.690;6.268;2022-07-23T11:50:50;23.30;91.90
59660;DHT22;45534;52.690;6.268;2022-07-23T11:53:34;23.10;94.00
59660;DHT22;45534;52.690;6.268;2022-07-23T11:58:30;22.90;96.20
59660;DHT22;45534;52.690;6.268;2022-07-23T12:00:55;23.00;96.80
59660;DHT22;45534;52.690;6.268;2022-07-23T12:03:21;23.20;96.30
59660;DHT22;45534;52.690;6.268;2022-07-23T12:05:47;23.40;95.60
59660;DHT22;45534;52.690;6.268;2022-07-23T12:08:13;23.60;95.20
59660;DHT22;45534;52.690;6.268;2022-07-23T12:10:41;24.00;95.60
59660;DHT22;45534;52.690;6.268;2022-07-23T12:13:09;24.30;92.70
59660;DHT22;45534;52.690;6.268;2022-07-23T12:15:41;24.40;90.80
59660;DHT22;45534;52.690;6.268;2022-07-23T12:18:09;24.40;90.90
59660;DHT22;45534;52.690;6.268;2022-07-23T12:20:40;24.40;90.20
59660;DHT22;45534;52.690;6.268;2022-07-23T12:23:09;24.20;87.30
59660;DHT22;45534;52.690;6.268;2022-07-23T12:25:45;24.00;91.50
59660;DHT22;45534;52.690;6.268;2022-07-23T12:30:42;24.30;92.60
59660;DHT22;45534;52.690;6.268;2022-07-23T12:33:11;24.50;90.50
59660;DHT22;45534;52.690;6.268;2022-07-23T12:35:45;24.70;90.40
59660;DHT22;45534;52.690;6.268;2022-07-23T12:38:20;24.70;90.30
59660;DHT22;45534;52.690;6.268;2022-07-23T12:40:48;24.60;86.90
59660;DHT22;45534;52.690;6.268;2022-07-23T12:43:33;24.30;90.40
59660;DHT22;45534;52.690;6.268;2022-07-23T12:46:08;23.90;91.10
59660;DHT22;45534;52.690;6.268;2022-07-23T12:48:39;23.70;92.80
59660;DHT22;45534;52.690;6.268;2022-07-23T12:51:26;23.80;92.40
59660;DHT22;45534;52.690;6.268;2022-07-23T12:53:58;24.00;91.40
59660;DHT22;45534;52.690;6.268;2022-07-23T12:56:28;24.20;91.10
59660;DHT22;45534;52.690;6.268;2022-07-23T13:01:35;24.40;92.80
59660;DHT22;45534;52.690;6.268;2022-07-23T13:06:43;25.00;89.60
59660;DHT22;45534;52.690;6.268;2022-07-23T13:09:12;25.00;81.80
59660;DHT22;45534;52.690;6.268;2022-07-23T13:11:38;24.50;85.00
59660;DHT22;45534;52.690;6.268;2022-07-23T13:14:05;24.40;92.00
59660;DHT22;45534;52.690;6.268;2022-07-23T13:16:32;24.80;91.20
59660;DHT22;45534;52.690;6.268;2022-07-23T13:18:59;25.20;87.80
59660;DHT22;45534;52.690;6.268;2022-07-23T13:21:26;25.50;82.50
59660;DHT22;45534;52.690;6.268;2022-07-23T13:23:52;25.50;81.80
59660;DHT22;45534;52.690;6.268;2022-07-23T13:26:18;25.40;81.00
59660;DHT22;45534;52.690;6.268;2022-07-23T13:28:44;25.10;78.80
59660;DHT22;45534;52.690;6.268;2022-07-23T13:31:09;24.70;82.70
59660;DHT22;45534;52.690;6.268;2022-07-23T13:33:35;24.60;91.20
59660;DHT22;45534;52.690;6.268;2022-07-23T13:36:01;24.60;90.30
59660;DHT22;45534;52.690;6.268;2022-07-23T13:38:27;24.70;90.10
59660;DHT22;45534;52.690;6.268;2022-07-23T13:40:53;24.60;90.80
59660;DHT22;45534;52.690;6.268;2022-07-23T13:43:22;24.30;89.70
59660;DHT22;45534;52.690;6.268;2022-07-23T13:45:48;24.20;90.90
59660;DHT22;45534;52.690;6.268;2022-07-23T13:48:15;23.80;91.20
59660;DHT22;45534;52.690;6.268;2022-07-23T13:50:42;23.60;92.20
59660;DHT22;45534;52.690;6.268;2022-07-23T13:53:10;23.50;93.10
59660;DHT22;45534;52.690;6.268;2022-07-23T13:55:37;23.60;94.50
59660;DHT22;45534;52.690;6.268;2022-07-23T13:58:04;23.90;93.50
59660;DHT22;45534;52.690;6.268;2022-07-23T14:00:31;24.20;91.80
59660;DHT22;45534;52.690;6.268;2022-07-23T14:02:58;24.40;91.60
59660;DHT22;45534;52.690;6.268;2022-07-23T14:05:24;24.60;89.60
59660;DHT22;45534;52.690;6.268;2022-07-23T14:07:50;24.70;87.20
59660;DHT22;45534;52.690;6.268;2022-07-23T14:10:19;24.80;83.90
59660;DHT22;45534;52.690;6.268;2022-07-23T14:12:46;24.90;86.40
59660;DHT22;45534;52.690;6.268;2022-07-23T14:15:12;25.10;87.00
59660;DHT22;45534;52.690;6.268;2022-07-23T14:17:40;25.00;84.30
59660;DHT22;45534;52.690;6.268;2022-07-23T14:20:07;25.20;85.50
59660;DHT22;45534;52.690;6.268;2022-07-23T14:22:33;25.20;78.20
59660;DHT22;45534;52.690;6.268;2022-07-23T14:24:59;25.20;76.60
59660;DHT22;45534;52.690;6.268;2022-07-23T14:27:27;25.40;78.20
59660;DHT22;45534;52.690;6.268;2022-07-23T14:29:53;25.50;77.80
59660;DHT22;45534;52.690;6.268;2022-07-23T14:32:19;25.20;79.60
59660;DHT22;45534;52.690;6.268;2022-07-23T14:34:45;25.10;79.40
59660;DHT22;45534;52.690;6.268;2022-07-23T14:37:11;24.80;83.10
59660;DHT22;45534;52.690;6.268;2022-07-23T14:39:42;24.60;84.20
59660;DHT22;45534;52.690;6.268;2022-07-23T14:42:09;24.80;81.10
59660;DHT22;45534;52.690;6.268;2022-07-23T14:44:35;25.10;83.00
59660;DHT22;45534;52.690;6.268;2022-07-23T14:47:03;25.40;81.60
59660;DHT22;45534;52.690;6.268;2022-07-23T14:49:30;25.40;84.00
59660;DHT22;45534;52.690;6.268;2022-07-23T14:51:56;25.70;84.70
59660;DHT22;45534;52.690;6.268;2022-07-23T14:54:23;25.70;82.70
59660;DHT22;45534;52.690;6.268;2022-07-23T14:56:51;25.80;81.00
59660;DHT22;45534;52.690;6.268;2022-07-23T14:59:17;26.00;78.10
59660;DHT22;45534;52.690;6.268;2022-07-23T15:01:43;26.10;79.60
59660;DHT22;45534;52.690;6.268;2022-07-23T15:04:08;26.20;77.50
59660;DHT22;45534;52.690;6.268;2022-07-23T15:06:34;26.10;77.40
59660;DHT22;45534;52.690;6.268;2022-07-23T15:09:00;26.00;74.90
59660;DHT22;45534;52.690;6.268;2022-07-23T15:11:29;25.80;75.90
59660;DHT22;45534;52.690;6.268;2022-07-23T15:13:57;26.00;78.20
59660;DHT22;45534;52.690;6.268;2022-07-23T15:16:23;26.00;70.90
59660;DHT22;45534;52.690;6.268;2022-07-23T15:18:51;25.90;72.10
59660;DHT22;45534;52.690;6.268;2022-07-23T15:21:17;25.60;73.80
59660;DHT22;45534;52.690;6.268;2022-07-23T15:23:43;25.30;77.90
59660;DHT22;45534;52.690;6.268;2022-07-23T15:26:09;25.10;77.50
59660;DHT22;45534;52.690;6.268;2022-07-23T15:28:37;25.00;80.00
59660;DHT22;45534;52.690;6.268;2022-07-23T15:31:03;25.00;81.00
59660;DHT22;45534;52.690;6.268;2022-07-23T15:33:29;25.20;81.90
59660;DHT22;45534;52.690;6.268;2022-07-23T15:35:55;25.40;80.10
59660;DHT22;45534;52.690;6.268;2022-07-23T15:38:23;25.60;75.90
59660;DHT22;45534;52.690;6.268;2022-07-23T15:40:48;25.80;78.50
59660;DHT22;45534;52.690;6.268;2022-07-23T15:43:14;25.80;77.90
59660;DHT22;45534;52.690;6.268;2022-07-23T15:45:40;25.70;78.60
59660;DHT22;45534;52.690;6.268;2022-07-23T15:48:06;25.60;81.00
59660;DHT22;45534;52.690;6.268;2022-07-23T15:50:32;25.60;83.60
59660;DHT22;45534;52.690;6.268;2022-07-23T15:52:58;25.70;83.30
59660;DHT22;45534;52.690;6.268;2022-07-23T15:55:23;25.70;82.80
59660;DHT22;45534;52.690;6.268;2022-07-23T15:57:50;25.80;80.70
59660;DHT22;45534;52.690;6.268;2022-07-23T16:00:17;26.00;78.10
59660;DHT22;45534;52.690;6.268;2022-07-23T16:02:43;26.20;80.90
59660;DHT22;45534;52.690;6.268;2022-07-23T16:05:09;26.40;73.00
59660;DHT22;45534;52.690;6.268;2022-07-23T16:07:35;26.60;70.80
59660;DHT22;45534;52.690;6.268;2022-07-23T16:10:05;27.00;67.40